Elmsdale, Canada
Current Conditions -  °F | °C
As of 2:00 PM on Friday 24 Oct 2014 (Local Time) from CYHZ Reporting Station
Drizzle Drizzle  
Wind Chill: 59°   Ceiling: 200
Heat Index: 59°   Visibility: 0.5mi
Dew Point: 59°   Wind: 7mph
Humidity: 100%   Direction: 30°NNE
Pressure: 29.48"   Gusts: NA
Location:  44.97°N, 63.52°W
Report Text: CYHZ 241700Z 03006KT 1/2SM R14/5000FT/N R23/5500VP6000FT/D -DZ FG VV002 15/15 A2948 RMK FG8 SLP984 DENSITY ALT 1000FT
Loading
Personal Weather Stations






























Interactive Weather Map
Tropical Storm Tracking
New forecast layout! Learn more

10-Day Weather Forecast

Advertisements
Track Severe Weather on mobile